sensor_id;sensor_type;location;lat;lon;timestamp;P1;durP1;ratioP1;P2;durP2;ratioP2
4084;SDS011;2057;50.858;6.572;2024-01-10T00:01:23;25.93;;;9.00;;
4084;SDS011;2057;50.858;6.572;2024-01-10T00:03:54;21.02;;;9.90;;
4084;SDS011;2057;50.858;6.572;2024-01-10T00:06:19;26.33;;;10.45;;
4084;SDS011;2057;50.858;6.572;2024-01-10T00:08:45;21.97;;;9.70;;
4084;SDS011;2057;50.858;6.572;2024-01-10T00:11:10;14.83;;;8.30;;
4084;SDS011;2057;50.858;6.572;2024-01-10T00:13:36;17.30;;;8.87;;
4084;SDS011;2057;50.858;6.572;2024-01-10T00:16:01;21.23;;;8.37;;
4084;SDS011;2057;50.858;6.572;2024-01-10T00:18:26;25.10;;;9.07;;
4084;SDS011;2057;50.858;6.572;2024-01-10T00:20:54;25.53;;;8.50;;
4084;SDS011;2057;50.858;6.572;2024-01-10T00:23:20;20.77;;;8.35;;
4084;SDS011;2057;50.858;6.572;2024-01-10T00:25:46;17.17;;;8.95;;
4084;SDS011;2057;50.858;6.572;2024-01-10T00:28:14;19.23;;;9.10;;
4084;SDS011;2057;50.858;6.572;2024-01-10T00:30:43;22.33;;;9.35;;
4084;SDS011;2057;50.858;6.572;2024-01-10T00:33:12;17.35;;;7.78;;
4084;SDS011;2057;50.858;6.572;2024-01-10T00:35:37;19.50;;;8.98;;
4084;SDS011;2057;50.858;6.572;2024-01-10T00:38:02;19.77;;;9.23;;
4084;SDS011;2057;50.858;6.572;2024-01-10T00:40:28;23.40;;;10.30;;
4084;SDS011;2057;50.858;6.572;2024-01-10T00:42:56;21.27;;;10.55;;
4084;SDS011;2057;50.858;6.572;2024-01-10T00:45:21;24.20;;;9.20;;
4084;SDS011;2057;50.858;6.572;2024-01-10T00:47:49;17.70;;;9.27;;
4084;SDS011;2057;50.858;6.572;2024-01-10T00:50:15;17.55;;;9.30;;
4084;SDS011;2057;50.858;6.572;2024-01-10T00:52:43;20.95;;;9.55;;
4084;SDS011;2057;50.858;6.572;2024-01-10T00:55:09;17.27;;;9.20;;
4084;SDS011;2057;50.858;6.572;2024-01-10T00:57:35;14.80;;;8.47;;
4084;SDS011;2057;50.858;6.572;2024-01-10T01:00:00;21.80;;;9.57;;
4084;SDS011;2057;50.858;6.572;2024-01-10T01:02:26;28.27;;;11.30;;
4084;SDS011;2057;50.858;6.572;2024-01-10T01:04:52;19.58;;;10.13;;
4084;SDS011;2057;50.858;6.572;2024-01-10T01:07:17;20.97;;;7.80;;
4084;SDS011;2057;50.858;6.572;2024-01-10T01:09:42;22.90;;;9.70;;
4084;SDS011;2057;50.858;6.572;2024-01-10T01:12:08;18.47;;;8.80;;
4084;SDS011;2057;50.858;6.572;2024-01-10T01:14:35;28.80;;;9.95;;
4084;SDS011;2057;50.858;6.572;2024-01-10T01:17:01;28.57;;;10.90;;
4084;SDS011;2057;50.858;6.572;2024-01-10T01:19:26;24.43;;;10.00;;
4084;SDS011;2057;50.858;6.572;2024-01-10T01:21:51;15.97;;;7.77;;
4084;SDS011;2057;50.858;6.572;2024-01-10T01:24:19;24.53;;;9.87;;
4084;SDS011;2057;50.858;6.572;2024-01-10T01:26:45;22.80;;;9.15;;
4084;SDS011;2057;50.858;6.572;2024-01-10T01:29:10;16.57;;;8.63;;
4084;SDS011;2057;50.858;6.572;2024-01-10T01:31:35;25.87;;;9.53;;
4084;SDS011;2057;50.858;6.572;2024-01-10T01:34:02;20.50;;;10.35;;
4084;SDS011;2057;50.858;6.572;2024-01-10T01:36:27;24.20;;;10.70;;
4084;SDS011;2057;50.858;6.572;2024-01-10T01:38:53;22.30;;;10.50;;
4084;SDS011;2057;50.858;6.572;2024-01-10T01:41:18;17.87;;;8.47;;
4084;SDS011;2057;50.858;6.572;2024-01-10T01:43:44;29.77;;;9.23;;
4084;SDS011;2057;50.858;6.572;2024-01-10T01:46:09;23.57;;;10.10;;
4084;SDS011;2057;50.858;6.572;2024-01-10T01:48:35;17.42;;;8.35;;
4084;SDS011;2057;50.858;6.572;2024-01-10T01:51:07;18.08;;;9.50;;
4084;SDS011;2057;50.858;6.572;2024-01-10T01:53:35;22.92;;;10.40;;
4084;SDS011;2057;50.858;6.572;2024-01-10T01:56:02;22.33;;;10.17;;
4084;SDS011;2057;50.858;6.572;2024-01-10T01:58:31;20.75;;;9.90;;
4084;SDS011;2057;50.858;6.572;2024-01-10T02:00:56;25.50;;;11.87;;
4084;SDS011;2057;50.858;6.572;2024-01-10T02:03:25;24.58;;;10.00;;
4084;SDS011;2057;50.858;6.572;2024-01-10T02:05:51;21.67;;;10.63;;
4084;SDS011;2057;50.858;6.572;2024-01-10T02:08:17;39.97;;;11.17;;
4084;SDS011;2057;50.858;6.572;2024-01-10T02:10:42;21.30;;;9.90;;
4084;SDS011;2057;50.858;6.572;2024-01-10T02:13:08;34.37;;;12.13;;
4084;SDS011;2057;50.858;6.572;2024-01-10T02:15:38;31.63;;;12.80;;
4084;SDS011;2057;50.858;6.572;2024-01-10T02:18:04;26.30;;;12.60;;
4084;SDS011;2057;50.858;6.572;2024-01-10T02:20:31;34.00;;;12.20;;
4084;SDS011;2057;50.858;6.572;2024-01-10T02:22:56;41.63;;;16.60;;
4084;SDS011;2057;50.858;6.572;2024-01-10T02:25:22;28.50;;;13.40;;
4084;SDS011;2057;50.858;6.572;2024-01-10T02:27:47;63.00;;;20.20;;
4084;SDS011;2057;50.858;6.572;2024-01-10T02:30:13;76.07;;;23.03;;
4084;SDS011;2057;50.858;6.572;2024-01-10T02:32:41;78.00;;;22.80;;
4084;SDS011;2057;50.858;6.572;2024-01-10T02:35:06;77.95;;;24.02;;
4084;SDS011;2057;50.858;6.572;2024-01-10T02:37:33;80.75;;;24.02;;
4084;SDS011;2057;50.858;6.572;2024-01-10T02:39:58;72.30;;;21.47;;
4084;SDS011;2057;50.858;6.572;2024-01-10T02:42:24;76.83;;;23.10;;
4084;SDS011;2057;50.858;6.572;2024-01-10T02:44:49;87.57;;;26.90;;
4084;SDS011;2057;50.858;6.572;2024-01-10T02:47:14;88.67;;;28.43;;
4084;SDS011;2057;50.858;6.572;2024-01-10T02:49:40;97.33;;;27.30;;
4084;SDS011;2057;50.858;6.572;2024-01-10T02:52:08;69.38;;;24.05;;
4084;SDS011;2057;50.858;6.572;2024-01-10T02:54:33;77.43;;;23.67;;
4084;SDS011;2057;50.858;6.572;2024-01-10T02:56:58;73.00;;;24.90;;
4084;SDS011;2057;50.858;6.572;2024-01-10T02:59:26;62.37;;;23.10;;
4084;SDS011;2057;50.858;6.572;2024-01-10T03:01:52;68.97;;;21.08;;
4084;SDS011;2057;50.858;6.572;2024-01-10T03:04:17;61.67;;;22.27;;
4084;SDS011;2057;50.858;6.572;2024-01-10T03:06:43;61.30;;;19.80;;
4084;SDS011;2057;50.858;6.572;2024-01-10T03:09:08;52.73;;;18.93;;
4084;SDS011;2057;50.858;6.572;2024-01-10T03:11:38;47.75;;;16.52;;
4084;SDS011;2057;50.858;6.572;2024-01-10T03:14:07;51.83;;;18.20;;
4084;SDS011;2057;50.858;6.572;2024-01-10T03:16:36;50.45;;;17.02;;
4084;SDS011;2057;50.858;6.572;2024-01-10T03:19:04;45.40;;;16.38;;
4084;SDS011;2057;50.858;6.572;2024-01-10T03:21:32;43.40;;;16.58;;
4084;SDS011;2057;50.858;6.572;2024-01-10T03:23:58;42.10;;;15.07;;
4084;SDS011;2057;50.858;6.572;2024-01-10T03:26:26;40.15;;;14.48;;
4084;SDS011;2057;50.858;6.572;2024-01-10T03:28:52;37.00;;;14.15;;
4084;SDS011;2057;50.858;6.572;2024-01-10T03:31:18;37.37;;;14.97;;
4084;SDS011;2057;50.858;6.572;2024-01-10T03:33:45;35.60;;;13.40;;
4084;SDS011;2057;50.858;6.572;2024-01-10T03:36:11;30.27;;;12.57;;
4084;SDS011;2057;50.858;6.572;2024-01-10T03:38:39;31.75;;;12.32;;
4084;SDS011;2057;50.858;6.572;2024-01-10T03:41:04;32.00;;;13.20;;
4084;SDS011;2057;50.858;6.572;2024-01-10T03:43:30;34.13;;;11.47;;
4084;SDS011;2057;50.858;6.572;2024-01-10T03:45:58;23.30;;;11.77;;
4084;SDS011;2057;50.858;6.572;2024-01-10T03:48:23;29.33;;;12.00;;
4084;SDS011;2057;50.858;6.572;2024-01-10T03:50:49;24.03;;;11.20;;
4084;SDS011;2057;50.858;6.572;2024-01-10T03:53:14;23.90;;;10.90;;
4084;SDS011;2057;50.858;6.572;2024-01-10T03:55:40;18.10;;;9.77;;
4084;SDS011;2057;50.858;6.572;2024-01-10T03:58:05;27.57;;;12.93;;
4084;SDS011;2057;50.858;6.572;2024-01-10T04:00:30;22.93;;;10.23;;
4084;SDS011;2057;50.858;6.572;2024-01-10T04:02:56;28.17;;;10.80;;
4084;SDS011;2057;50.858;6.572;2024-01-10T04:05:21;20.07;;;10.47;;
4084;SDS011;2057;50.858;6.572;2024-01-10T04:07:49;22.00;;;11.85;;
4084;SDS011;2057;50.858;6.572;2024-01-10T04:10:15;28.47;;;12.10;;
4084;SDS011;2057;50.858;6.572;2024-01-10T04:12:43;24.63;;;10.90;;
4084;SDS011;2057;50.858;6.572;2024-01-10T04:15:09;23.85;;;11.88;;
4084;SDS011;2057;50.858;6.572;2024-01-10T04:17:35;29.57;;;10.90;;
4084;SDS011;2057;50.858;6.572;2024-01-10T04:20:00;28.07;;;12.90;;
4084;SDS011;2057;50.858;6.572;2024-01-10T04:22:26;28.80;;;11.80;;
4084;SDS011;2057;50.858;6.572;2024-01-10T04:24:51;25.83;;;12.03;;
4084;SDS011;2057;50.858;6.572;2024-01-10T04:27:17;35.60;;;12.13;;
4084;SDS011;2057;50.858;6.572;2024-01-10T04:29:43;21.03;;;11.40;;
4084;SDS011;2057;50.858;6.572;2024-01-10T04:32:09;24.25;;;11.50;;
4084;SDS011;2057;50.858;6.572;2024-01-10T04:34:35;36.07;;;13.17;;
4084;SDS011;2057;50.858;6.572;2024-01-10T04:37:00;23.67;;;10.97;;
4084;SDS011;2057;50.858;6.572;2024-01-10T04:39:28;31.05;;;12.43;;
4084;SDS011;2057;50.858;6.572;2024-01-10T04:41:54;31.10;;;12.03;;
4084;SDS011;2057;50.858;6.572;2024-01-10T04:44:20;33.67;;;14.03;;
4084;SDS011;2057;50.858;6.572;2024-01-10T04:46:45;30.97;;;12.37;;
4084;SDS011;2057;50.858;6.572;2024-01-10T04:49:11;33.97;;;10.60;;
4084;SDS011;2057;50.858;6.572;2024-01-10T04:51:37;25.93;;;12.90;;
4084;SDS011;2057;50.858;6.572;2024-01-10T04:54:02;23.40;;;11.20;;
4084;SDS011;2057;50.858;6.572;2024-01-10T04:56:31;33.10;;;12.13;;
4084;SDS011;2057;50.858;6.572;2024-01-10T04:58:56;31.90;;;13.52;;
4084;SDS011;2057;50.858;6.572;2024-01-10T05:01:21;25.20;;;12.07;;
4084;SDS011;2057;50.858;6.572;2024-01-10T05:03:49;30.40;;;11.90;;
4084;SDS011;2057;50.858;6.572;2024-01-10T05:06:15;24.70;;;12.00;;
4084;SDS011;2057;50.858;6.572;2024-01-10T05:08:40;25.93;;;10.53;;
4084;SDS011;2057;50.858;6.572;2024-01-10T05:11:08;30.50;;;12.15;;
4084;SDS011;2057;50.858;6.572;2024-01-10T05:13:33;28.83;;;13.30;;
4084;SDS011;2057;50.858;6.572;2024-01-10T05:15:58;22.97;;;11.27;;
4084;SDS011;2057;50.858;6.572;2024-01-10T05:18:26;24.92;;;12.23;;
4084;SDS011;2057;50.858;6.572;2024-01-10T05:20:51;28.90;;;11.40;;
4084;SDS011;2057;50.858;6.572;2024-01-10T05:23:17;40.90;;;15.80;;
4084;SDS011;2057;50.858;6.572;2024-01-10T05:25:42;28.23;;;14.20;;
4084;SDS011;2057;50.858;6.572;2024-01-10T05:28:10;27.17;;;12.27;;
4084;SDS011;2057;50.858;6.572;2024-01-10T05:30:39;33.60;;;14.15;;
4084;SDS011;2057;50.858;6.572;2024-01-10T05:33:10;27.27;;;11.88;;
4084;SDS011;2057;50.858;6.572;2024-01-10T05:35:36;32.45;;;12.93;;
4084;SDS011;2057;50.858;6.572;2024-01-10T05:38:02;25.17;;;12.70;;
4084;SDS011;2057;50.858;6.572;2024-01-10T05:40:30;38.45;;;14.57;;
4084;SDS011;2057;50.858;6.572;2024-01-10T05:42:56;27.48;;;12.15;;
4084;SDS011;2057;50.858;6.572;2024-01-10T05:45:23;34.05;;;12.93;;
4084;SDS011;2057;50.858;6.572;2024-01-10T05:47:48;27.80;;;12.67;;
4084;SDS011;2057;50.858;6.572;2024-01-10T05:50:14;28.20;;;13.87;;
4084;SDS011;2057;50.858;6.572;2024-01-10T05:52:42;32.70;;;13.07;;
4084;SDS011;2057;50.858;6.572;2024-01-10T05:55:08;25.75;;;13.80;;
4084;SDS011;2057;50.858;6.572;2024-01-10T05:57:35;26.45;;;12.20;;
4084;SDS011;2057;50.858;6.572;2024-01-10T06:00:04;28.05;;;12.82;;
4084;SDS011;2057;50.858;6.572;2024-01-10T06:02:34;24.73;;;11.25;;
4084;SDS011;2057;50.858;6.572;2024-01-10T06:05:06;27.45;;;14.20;;
4084;SDS011;2057;50.858;6.572;2024-01-10T06:07:35;30.20;;;14.57;;
4084;SDS011;2057;50.858;6.572;2024-01-10T06:10:01;24.25;;;12.68;;
4084;SDS011;2057;50.858;6.572;2024-01-10T06:12:29;28.67;;;12.30;;
4084;SDS011;2057;50.858;6.572;2024-01-10T06:14:54;27.77;;;13.00;;
4084;SDS011;2057;50.858;6.572;2024-01-10T06:17:26;29.80;;;12.37;;
4084;SDS011;2057;50.858;6.572;2024-01-10T06:19:54;30.63;;;12.43;;
4084;SDS011;2057;50.858;6.572;2024-01-10T06:22:19;25.60;;;12.68;;
4084;SDS011;2057;50.858;6.572;2024-01-10T06:24:50;31.00;;;13.25;;
4084;SDS011;2057;50.858;6.572;2024-01-10T06:27:18;30.67;;;14.63;;
4084;SDS011;2057;50.858;6.572;2024-01-10T06:29:43;27.40;;;13.60;;
4084;SDS011;2057;50.858;6.572;2024-01-10T06:32:10;33.17;;;13.30;;
4084;SDS011;2057;50.858;6.572;2024-01-10T06:34:36;32.25;;;13.40;;
4084;SDS011;2057;50.858;6.572;2024-01-10T06:37:01;29.33;;;13.57;;
4084;SDS011;2057;50.858;6.572;2024-01-10T06:39:30;38.60;;;15.70;;
4084;SDS011;2057;50.858;6.572;2024-01-10T06:41:56;28.02;;;13.68;;
4084;SDS011;2057;50.858;6.572;2024-01-10T06:44:23;34.67;;;12.95;;
4084;SDS011;2057;50.858;6.572;2024-01-10T06:46:48;23.83;;;12.80;;
4084;SDS011;2057;50.858;6.572;2024-01-10T06:49:13;31.63;;;11.70;;
4084;SDS011;2057;50.858;6.572;2024-01-10T06:51:39;32.63;;;13.07;;
4084;SDS011;2057;50.858;6.572;2024-01-10T06:54:04;32.80;;;14.20;;
4084;SDS011;2057;50.858;6.572;2024-01-10T06:56:33;31.87;;;12.73;;
4084;SDS011;2057;50.858;6.572;2024-01-10T06:59:01;27.13;;;13.13;;
4084;SDS011;2057;50.858;6.572;2024-01-10T07:01:29;24.52;;;12.27;;
4084;SDS011;2057;50.858;6.572;2024-01-10T07:03:55;32.87;;;12.70;;
4084;SDS011;2057;50.858;6.572;2024-01-10T07:06:23;33.60;;;14.73;;
4084;SDS011;2057;50.858;6.572;2024-01-10T07:08:49;26.50;;;13.68;;
4084;SDS011;2057;50.858;6.572;2024-01-10T07:11:15;27.13;;;14.45;;
4084;SDS011;2057;50.858;6.572;2024-01-10T07:13:42;28.42;;;13.63;;
4084;SDS011;2057;50.858;6.572;2024-01-10T07:16:08;28.20;;;12.57;;
4084;SDS011;2057;50.858;6.572;2024-01-10T07:18:38;29.60;;;14.10;;
4084;SDS011;2057;50.858;6.572;2024-01-10T07:21:05;29.85;;;13.57;;
4084;SDS011;2057;50.858;6.572;2024-01-10T07:23:30;25.60;;;14.07;;
4084;SDS011;2057;50.858;6.572;2024-01-10T07:25:57;39.75;;;13.48;;
4084;SDS011;2057;50.858;6.572;2024-01-10T07:28:22;32.07;;;14.03;;
4084;SDS011;2057;50.858;6.572;2024-01-10T07:30:48;22.73;;;12.43;;
4084;SDS011;2057;50.858;6.572;2024-01-10T07:33:13;37.00;;;16.03;;
4084;SDS011;2057;50.858;6.572;2024-01-10T07:35:39;29.60;;;14.47;;
4084;SDS011;2057;50.858;6.572;2024-01-10T07:38:06;31.75;;;14.75;;
4084;SDS011;2057;50.858;6.572;2024-01-10T07:40:35;23.40;;;12.82;;
4084;SDS011;2057;50.858;6.572;2024-01-10T07:43:01;32.17;;;14.65;;
4084;SDS011;2057;50.858;6.572;2024-01-10T07:45:26;27.87;;;14.37;;
4084;SDS011;2057;50.858;6.572;2024-01-10T07:47:52;23.97;;;13.67;;
4084;SDS011;2057;50.858;6.572;2024-01-10T07:50:18;28.53;;;12.20;;
4084;SDS011;2057;50.858;6.572;2024-01-10T07:52:44;27.23;;;12.60;;
4084;SDS011;2057;50.858;6.572;2024-01-10T07:55:12;27.45;;;12.82;;
4084;SDS011;2057;50.858;6.572;2024-01-10T07:57:38;24.80;;;12.37;;
4084;SDS011;2057;50.858;6.572;2024-01-10T08:00:04;29.73;;;13.37;;
4084;SDS011;2057;50.858;6.572;2024-01-10T08:02:31;24.65;;;13.90;;
4084;SDS011;2057;50.858;6.572;2024-01-10T08:05:00;34.63;;;12.40;;
4084;SDS011;2057;50.858;6.572;2024-01-10T08:07:29;30.33;;;13.68;;
4084;SDS011;2057;50.858;6.572;2024-01-10T08:10:03;29.27;;;12.60;;
4084;SDS011;2057;50.858;6.572;2024-01-10T08:12:33;33.80;;;12.32;;
4084;SDS011;2057;50.858;6.572;2024-01-10T08:14:59;26.77;;;11.20;;
4084;SDS011;2057;50.858;6.572;2024-01-10T08:17:24;29.80;;;13.83;;
4084;SDS011;2057;50.858;6.572;2024-01-10T08:19:50;31.00;;;12.35;;
4084;SDS011;2057;50.858;6.572;2024-01-10T08:22:16;29.73;;;13.38;;
4084;SDS011;2057;50.858;6.572;2024-01-10T08:24:42;25.20;;;13.60;;
4084;SDS011;2057;50.858;6.572;2024-01-10T08:27:09;27.30;;;10.95;;
4084;SDS011;2057;50.858;6.572;2024-01-10T08:29:34;30.20;;;12.23;;
4084;SDS011;2057;50.858;6.572;2024-01-10T08:32:00;27.63;;;13.77;;
4084;SDS011;2057;50.858;6.572;2024-01-10T08:34:31;40.38;;;14.00;;
4084;SDS011;2057;50.858;6.572;2024-01-10T08:36:57;32.08;;;14.40;;
4084;SDS011;2057;50.858;6.572;2024-01-10T08:39:22;26.93;;;13.83;;
4084;SDS011;2057;50.858;6.572;2024-01-10T08:41:49;34.53;;;16.63;;
4084;SDS011;2057;50.858;6.572;2024-01-10T08:44:15;28.17;;;14.77;;
4084;SDS011;2057;50.858;6.572;2024-01-10T08:46:42;34.80;;;15.60;;
4084;SDS011;2057;50.858;6.572;2024-01-10T08:49:08;48.93;;;17.07;;
4084;SDS011;2057;50.858;6.572;2024-01-10T08:51:33;29.90;;;16.00;;
4084;SDS011;2057;50.858;6.572;2024-01-10T08:53:59;30.67;;;14.73;;
4084;SDS011;2057;50.858;6.572;2024-01-10T08:56:27;35.45;;;15.05;;
4084;SDS011;2057;50.858;6.572;2024-01-10T08:58:54;33.15;;;14.15;;
4084;SDS011;2057;50.858;6.572;2024-01-10T09:01:22;33.55;;;15.82;;
4084;SDS011;2057;50.858;6.572;2024-01-10T09:03:47;31.87;;;15.70;;
4084;SDS011;2057;50.858;6.572;2024-01-10T09:06:15;45.33;;;17.17;;
4084;SDS011;2057;50.858;6.572;2024-01-10T09:08:42;41.58;;;17.45;;
4084;SDS011;2057;50.858;6.572;2024-01-10T09:11:10;41.63;;;20.60;;
4084;SDS011;2057;50.858;6.572;2024-01-10T09:13:38;176.73;;;43.15;;
4084;SDS011;2057;50.858;6.572;2024-01-10T09:16:05;84.13;;;28.90;;
4084;SDS011;2057;50.858;6.572;2024-01-10T09:18:30;43.33;;;18.67;;
4084;SDS011;2057;50.858;6.572;2024-01-10T09:20:56;33.43;;;17.33;;
4084;SDS011;2057;50.858;6.572;2024-01-10T09:23:21;34.03;;;13.23;;
4084;SDS011;2057;50.858;6.572;2024-01-10T09:25:47;29.83;;;14.23;;
4084;SDS011;2057;50.858;6.572;2024-01-10T09:28:12;27.90;;;13.83;;
4084;SDS011;2057;50.858;6.572;2024-01-10T09:30:38;39.97;;;14.40;;
4084;SDS011;2057;50.858;6.572;2024-01-10T09:33:06;31.02;;;16.02;;
4084;SDS011;2057;50.858;6.572;2024-01-10T09:35:32;49.40;;;15.57;;
4084;SDS011;2057;50.858;6.572;2024-01-10T09:37:57;32.80;;;15.30;;
4084;SDS011;2057;50.858;6.572;2024-01-10T09:40:26;49.72;;;17.63;;
4084;SDS011;2057;50.858;6.572;2024-01-10T09:42:53;53.45;;;15.73;;
4084;SDS011;2057;50.858;6.572;2024-01-10T09:45:19;40.00;;;14.55;;
4084;SDS011;2057;50.858;6.572;2024-01-10T09:47:48;32.72;;;15.25;;
4084;SDS011;2057;50.858;6.572;2024-01-10T09:50:17;36.58;;;16.38;;
4084;SDS011;2057;50.858;6.572;2024-01-10T09:55:35;34.90;;;14.23;;
4084;SDS011;2057;50.858;6.572;2024-01-10T09:58:04;40.17;;;15.60;;
4084;SDS011;2057;50.858;6.572;2024-01-10T10:00:31;35.33;;;14.85;;
4084;SDS011;2057;50.858;6.572;2024-01-10T10:03:00;29.02;;;14.88;;
4084;SDS011;2057;50.858;6.572;2024-01-10T10:05:29;35.92;;;15.70;;
4084;SDS011;2057;50.858;6.572;2024-01-10T10:07:54;35.87;;;17.50;;
4084;SDS011;2057;50.858;6.572;2024-01-10T10:10:22;32.93;;;14.40;;
4084;SDS011;2057;50.858;6.572;2024-01-10T10:12:52;30.15;;;13.20;;
4084;SDS011;2057;50.858;6.572;2024-01-10T10:15:18;32.80;;;14.95;;
4084;SDS011;2057;50.858;6.572;2024-01-10T10:17:49;41.50;;;15.00;;
4084;SDS011;2057;50.858;6.572;2024-01-10T10:20:21;36.85;;;15.88;;
4084;SDS011;2057;50.858;6.572;2024-01-10T10:25:34;39.03;;;15.15;;
4084;SDS011;2057;50.858;6.572;2024-01-10T10:28:05;28.98;;;14.38;;
4084;SDS011;2057;50.858;6.572;2024-01-10T10:30:33;40.25;;;15.35;;
4084;SDS011;2057;50.858;6.572;2024-01-10T10:33:01;33.03;;;14.87;;
4084;SDS011;2057;50.858;6.572;2024-01-10T10:35:28;42.25;;;13.20;;
4084;SDS011;2057;50.858;6.572;2024-01-10T10:37:53;29.13;;;15.93;;
4084;SDS011;2057;50.858;6.572;2024-01-10T10:40:19;49.87;;;16.10;;
4084;SDS011;2057;50.858;6.572;2024-01-10T10:42:48;38.30;;;16.98;;
4084;SDS011;2057;50.858;6.572;2024-01-10T10:45:18;32.30;;;14.90;;
4084;SDS011;2057;50.858;6.572;2024-01-10T10:47:45;39.10;;;17.83;;
4084;SDS011;2057;50.858;6.572;2024-01-10T10:50:20;36.47;;;16.73;;
4084;SDS011;2057;50.858;6.572;2024-01-10T10:52:47;47.40;;;15.43;;
4084;SDS011;2057;50.858;6.572;2024-01-10T10:55:17;34.17;;;16.52;;
4084;SDS011;2057;50.858;6.572;2024-01-10T10:57:50;50.30;;;21.30;;
4084;SDS011;2057;50.858;6.572;2024-01-10T11:00:18;41.80;;;18.73;;
4084;SDS011;2057;50.858;6.572;2024-01-10T11:02:46;35.50;;;16.02;;
4084;SDS011;2057;50.858;6.572;2024-01-10T11:05:12;36.93;;;15.83;;
4084;SDS011;2057;50.858;6.572;2024-01-10T11:07:41;30.92;;;16.73;;
4084;SDS011;2057;50.858;6.572;2024-01-10T11:10:21;44.80;;;17.33;;
4084;SDS011;2057;50.858;6.572;2024-01-10T11:26:11;37.97;;;16.55;;
4084;SDS011;2057;50.858;6.572;2024-01-10T11:28:40;33.45;;;16.38;;
4084;SDS011;2057;50.858;6.572;2024-01-10T11:31:09;46.58;;;17.10;;
4084;SDS011;2057;50.858;6.572;2024-01-10T11:33:35;40.30;;;16.00;;
4084;SDS011;2057;50.858;6.572;2024-01-10T11:36:16;40.05;;;16.60;;
4084;SDS011;2057;50.858;6.572;2024-01-10T11:46:52;44.75;;;15.52;;
4084;SDS011;2057;50.858;6.572;2024-01-10T11:49:20;35.47;;;15.60;;
4084;SDS011;2057;50.858;6.572;2024-01-10T11:51:49;31.60;;;16.20;;
4084;SDS011;2057;50.858;6.572;2024-01-10T11:57:02;45.20;;;16.83;;
4084;SDS011;2057;50.858;6.572;2024-01-10T11:59:27;33.53;;;15.80;;
4084;SDS011;2057;50.858;6.572;2024-01-10T12:01:55;45.25;;;17.42;;
4084;SDS011;2057;50.858;6.572;2024-01-10T12:04:20;52.93;;;16.13;;
4084;SDS011;2057;50.858;6.572;2024-01-10T12:06:46;44.33;;;16.43;;
4084;SDS011;2057;50.858;6.572;2024-01-10T12:09:12;32.50;;;15.30;;
4084;SDS011;2057;50.858;6.572;2024-01-10T12:11:39;37.60;;;15.03;;
4084;SDS011;2057;50.858;6.572;2024-01-10T12:14:05;37.65;;;15.02;;
4084;SDS011;2057;50.858;6.572;2024-01-10T12:16:36;46.77;;;17.37;;
4084;SDS011;2057;50.858;6.572;2024-01-10T12:19:02;37.78;;;16.00;;
4084;SDS011;2057;50.858;6.572;2024-01-10T12:21:27;34.37;;;16.67;;
4084;SDS011;2057;50.858;6.572;2024-01-10T12:23:52;44.40;;;17.70;;
4084;SDS011;2057;50.858;6.572;2024-01-10T12:26:20;47.67;;;14.90;;
4084;SDS011;2057;50.858;6.572;2024-01-10T12:28:55;35.58;;;17.52;;
4084;SDS011;2057;50.858;6.572;2024-01-10T12:31:23;31.98;;;14.50;;
4084;SDS011;2057;50.858;6.572;2024-01-10T12:33:50;39.55;;;16.75;;
4084;SDS011;2057;50.858;6.572;2024-01-10T12:36:16;32.70;;;14.30;;
4084;SDS011;2057;50.858;6.572;2024-01-10T12:38:43;34.50;;;16.25;;
4084;SDS011;2057;50.858;6.572;2024-01-10T12:41:10;28.17;;;13.55;;
4084;SDS011;2057;50.858;6.572;2024-01-10T12:43:36;34.03;;;16.70;;
4084;SDS011;2057;50.858;6.572;2024-01-10T12:48:38;42.47;;;17.35;;
4084;SDS011;2057;50.858;6.572;2024-01-10T12:51:07;40.40;;;17.20;;
4084;SDS011;2057;50.858;6.572;2024-01-10T12:53:37;36.25;;;16.05;;
4084;SDS011;2057;50.858;6.572;2024-01-10T12:56:04;44.85;;;16.55;;
4084;SDS011;2057;50.858;6.572;2024-01-10T12:58:31;30.58;;;15.68;;
4084;SDS011;2057;50.858;6.572;2024-01-10T13:00:56;43.23;;;18.03;;
4084;SDS011;2057;50.858;6.572;2024-01-10T13:03:24;36.05;;;16.88;;
4084;SDS011;2057;50.858;6.572;2024-01-10T13:05:50;40.23;;;17.53;;
4084;SDS011;2057;50.858;6.572;2024-01-10T13:08:16;32.92;;;16.55;;
4084;SDS011;2057;50.858;6.572;2024-01-10T13:10:44;39.55;;;16.80;;
4084;SDS011;2057;50.858;6.572;2024-01-10T13:13:10;40.43;;;18.73;;
4084;SDS011;2057;50.858;6.572;2024-01-10T13:15:36;43.53;;;17.67;;
4084;SDS011;2057;50.858;6.572;2024-01-10T13:18:01;42.73;;;18.03;;
4084;SDS011;2057;50.858;6.572;2024-01-10T13:20:26;43.97;;;17.87;;
4084;SDS011;2057;50.858;6.572;2024-01-10T13:22:52;42.55;;;17.63;;
4084;SDS011;2057;50.858;6.572;2024-01-10T13:25:18;36.53;;;16.90;;
4084;SDS011;2057;50.858;6.572;2024-01-10T13:27:46;40.88;;;19.13;;
4084;SDS011;2057;50.858;6.572;2024-01-10T13:30:11;39.63;;;15.73;;
4084;SDS011;2057;50.858;6.572;2024-01-10T13:32:37;40.40;;;16.80;;
4084;SDS011;2057;50.858;6.572;2024-01-10T13:35:06;40.03;;;18.60;;
4084;SDS011;2057;50.858;6.572;2024-01-10T13:37:31;32.85;;;14.88;;
4084;SDS011;2057;50.858;6.572;2024-01-10T13:39:57;40.60;;;16.60;;
4084;SDS011;2057;50.858;6.572;2024-01-10T13:42:23;36.83;;;16.37;;
4084;SDS011;2057;50.858;6.572;2024-01-10T13:44:49;36.70;;;19.87;;
4084;SDS011;2057;50.858;6.572;2024-01-10T13:47:15;38.63;;;17.17;;
4084;SDS011;2057;50.858;6.572;2024-01-10T13:49:45;31.25;;;16.42;;
4084;SDS011;2057;50.858;6.572;2024-01-10T13:52:10;37.13;;;16.80;;
4084;SDS011;2057;50.858;6.572;2024-01-10T13:54:36;38.03;;;17.90;;
4084;SDS011;2057;50.858;6.572;2024-01-10T13:57:01;42.80;;;20.03;;
4084;SDS011;2057;50.858;6.572;2024-01-10T13:59:28;38.05;;;16.13;;
4084;SDS011;2057;50.858;6.572;2024-01-10T14:01:53;57.27;;;17.40;;
4084;SDS011;2057;50.858;6.572;2024-01-10T14:04:18;35.73;;;16.63;;
4084;SDS011;2057;50.858;6.572;2024-01-10T14:06:44;37.00;;;16.90;;
4084;SDS011;2057;50.858;6.572;2024-01-10T14:09:12;34.10;;;18.20;;
4084;SDS011;2057;50.858;6.572;2024-01-10T14:11:43;39.20;;;18.55;;
4084;SDS011;2057;50.858;6.572;2024-01-10T14:14:15;40.17;;;16.38;;
4084;SDS011;2057;50.858;6.572;2024-01-10T14:16:41;57.28;;;17.38;;
4084;SDS011;2057;50.858;6.572;2024-01-10T14:19:07;42.53;;;16.93;;
4084;SDS011;2057;50.858;6.572;2024-01-10T14:21:32;37.63;;;16.57;;
4084;SDS011;2057;50.858;6.572;2024-01-10T14:23:57;44.43;;;18.67;;
4084;SDS011;2057;50.858;6.572;2024-01-10T14:26:23;45.40;;;19.10;;
4084;SDS011;2057;50.858;6.572;2024-01-10T14:28:51;42.63;;;19.70;;
4084;SDS011;2057;50.858;6.572;2024-01-10T14:31:18;53.25;;;17.65;;
4084;SDS011;2057;50.858;6.572;2024-01-10T14:33:44;34.00;;;15.75;;
4084;SDS011;2057;50.858;6.572;2024-01-10T14:36:10;36.23;;;16.90;;
4084;SDS011;2057;50.858;6.572;2024-01-10T14:38:35;46.73;;;16.93;;
4084;SDS011;2057;50.858;6.572;2024-01-10T14:41:00;38.63;;;17.70;;
4084;SDS011;2057;50.858;6.572;2024-01-10T14:43:26;37.03;;;17.47;;
4084;SDS011;2057;50.858;6.572;2024-01-10T14:45:51;35.07;;;16.10;;
4084;SDS011;2057;50.858;6.572;2024-01-10T14:48:19;30.80;;;15.68;;
4084;SDS011;2057;50.858;6.572;2024-01-10T14:50:54;39.20;;;17.93;;
4084;SDS011;2057;50.858;6.572;2024-01-10T14:53:25;43.65;;;18.65;;
4084;SDS011;2057;50.858;6.572;2024-01-10T14:56:05;35.33;;;17.95;;
4084;SDS011;2057;50.858;6.572;2024-01-10T14:58:30;45.00;;;18.63;;
4084;SDS011;2057;50.858;6.572;2024-01-10T15:00:58;39.55;;;17.23;;
4084;SDS011;2057;50.858;6.572;2024-01-10T15:03:29;44.35;;;19.05;;
4084;SDS011;2057;50.858;6.572;2024-01-10T15:05:58;49.47;;;17.70;;
4084;SDS011;2057;50.858;6.572;2024-01-10T15:08:23;39.08;;;19.13;;
4084;SDS011;2057;50.858;6.572;2024-01-10T15:10:48;42.10;;;18.17;;
4084;SDS011;2057;50.858;6.572;2024-01-10T15:13:16;44.45;;;18.33;;
4084;SDS011;2057;50.858;6.572;2024-01-10T15:15:46;35.80;;;17.48;;
4084;SDS011;2057;50.858;6.572;2024-01-10T15:18:11;46.80;;;18.67;;